sensor_id;sensor_type;location;lat;lon;timestamp;P1;durP1;ratioP1;P2;durP2;ratioP2
15216;SDS011;7711;46.634;14.318;2023-04-03T00:01:52;1.60;;;1.50;;
15216;SDS011;7711;46.634;14.318;2023-04-03T00:04:19;1.67;;;1.57;;
15216;SDS011;7711;46.634;14.318;2023-04-03T00:06:46;1.80;;;1.40;;
15216;SDS011;7711;46.634;14.318;2023-04-03T00:09:14;1.70;;;1.60;;
15216;SDS011;7711;46.634;14.318;2023-04-03T00:11:41;1.60;;;1.50;;
15216;SDS011;7711;46.634;14.318;2023-04-03T00:14:09;1.87;;;1.77;;
15216;SDS011;7711;46.634;14.318;2023-04-03T00:16:36;1.80;;;1.70;;
15216;SDS011;7711;46.634;14.318;2023-04-03T00:19:04;1.83;;;1.67;;
15216;SDS011;7711;46.634;14.318;2023-04-03T00:21:31;1.70;;;1.60;;
15216;SDS011;7711;46.634;14.318;2023-04-03T00:23:58;1.77;;;1.67;;
15216;SDS011;7711;46.634;14.318;2023-04-03T00:26:25;1.77;;;1.67;;
15216;SDS011;7711;46.634;14.318;2023-04-03T00:28:52;1.70;;;1.60;;
15216;SDS011;7711;46.634;14.318;2023-04-03T00:31:20;2.30;;;2.10;;
15216;SDS011;7711;46.634;14.318;2023-04-03T00:33:47;1.83;;;1.70;;
15216;SDS011;7711;46.634;14.318;2023-04-03T00:36:14;2.10;;;1.73;;
15216;SDS011;7711;46.634;14.318;2023-04-03T00:38:41;1.97;;;1.73;;
15216;SDS011;7711;46.634;14.318;2023-04-03T00:41:09;1.77;;;1.60;;
15216;SDS011;7711;46.634;14.318;2023-04-03T00:43:36;1.80;;;1.70;;
15216;SDS011;7711;46.634;14.318;2023-04-03T00:46:03;3.10;;;1.70;;
15216;SDS011;7711;46.634;14.318;2023-04-03T00:48:32;2.13;;;1.83;;
15216;SDS011;7711;46.634;14.318;2023-04-03T00:51:03;3.37;;;1.77;;
15216;SDS011;7711;46.634;14.318;2023-04-03T00:53:33;2.00;;;1.80;;
15216;SDS011;7711;46.634;14.318;2023-04-03T00:56:03;3.27;;;2.00;;
15216;SDS011;7711;46.634;14.318;2023-04-03T00:58:37;2.07;;;1.93;;
15216;SDS011;7711;46.634;14.318;2023-04-03T01:01:07;2.00;;;1.80;;
15216;SDS011;7711;46.634;14.318;2023-04-03T01:03:39;3.43;;;2.00;;
15216;SDS011;7711;46.634;14.318;2023-04-03T01:06:06;2.83;;;2.00;;
15216;SDS011;7711;46.634;14.318;2023-04-03T01:08:34;2.50;;;2.30;;
15216;SDS011;7711;46.634;14.318;2023-04-03T01:11:01;2.50;;;2.30;;
15216;SDS011;7711;46.634;14.318;2023-04-03T01:13:30;2.43;;;2.20;;
15216;SDS011;7711;46.634;14.318;2023-04-03T01:16:00;2.47;;;2.27;;
15216;SDS011;7711;46.634;14.318;2023-04-03T01:18:27;3.63;;;2.50;;
15216;SDS011;7711;46.634;14.318;2023-04-03T01:21:06;2.97;;;2.27;;
15216;SDS011;7711;46.634;14.318;2023-04-03T01:24:08;2.70;;;2.50;;
15216;SDS011;7711;46.634;14.318;2023-04-03T01:26:40;3.03;;;2.70;;
15216;SDS011;7711;46.634;14.318;2023-04-03T01:29:07;4.57;;;2.70;;
15216;SDS011;7711;46.634;14.318;2023-04-03T01:31:52;3.27;;;2.80;;
15216;SDS011;7711;46.634;14.318;2023-04-03T01:34:19;3.23;;;2.93;;
15216;SDS011;7711;46.634;14.318;2023-04-03T01:36:47;2.97;;;2.70;;
15216;SDS011;7711;46.634;14.318;2023-04-03T01:39:14;2.77;;;2.57;;
15216;SDS011;7711;46.634;14.318;2023-04-03T01:41:41;3.90;;;3.50;;
15216;SDS011;7711;46.634;14.318;2023-04-03T01:44:08;3.60;;;3.23;;
15216;SDS011;7711;46.634;14.318;2023-04-03T01:46:35;5.13;;;3.20;;
15216;SDS011;7711;46.634;14.318;2023-04-03T01:49:04;3.00;;;2.70;;
15216;SDS011;7711;46.634;14.318;2023-04-03T01:51:31;4.93;;;3.57;;
15216;SDS011;7711;46.634;14.318;2023-04-03T01:53:59;3.40;;;3.07;;
15216;SDS011;7711;46.634;14.318;2023-04-03T01:56:26;3.60;;;3.30;;
15216;SDS011;7711;46.634;14.318;2023-04-03T01:58:53;4.00;;;3.60;;
15216;SDS011;7711;46.634;14.318;2023-04-03T02:01:20;3.53;;;3.20;;
15216;SDS011;7711;46.634;14.318;2023-04-03T02:03:47;3.70;;;3.40;;
15216;SDS011;7711;46.634;14.318;2023-04-03T02:06:16;3.47;;;3.17;;
15216;SDS011;7711;46.634;14.318;2023-04-03T02:08:43;3.50;;;3.20;;
15216;SDS011;7711;46.634;14.318;2023-04-03T02:11:10;3.90;;;3.50;;
15216;SDS011;7711;46.634;14.318;2023-04-03T02:13:37;3.77;;;3.47;;
15216;SDS011;7711;46.634;14.318;2023-04-03T02:16:07;4.03;;;3.63;;
15216;SDS011;7711;46.634;14.318;2023-04-03T02:18:38;3.77;;;3.37;;
15216;SDS011;7711;46.634;14.318;2023-04-03T02:21:05;7.57;;;3.30;;
15216;SDS011;7711;46.634;14.318;2023-04-03T02:23:34;5.27;;;3.47;;
15216;SDS011;7711;46.634;14.318;2023-04-03T02:26:05;4.03;;;3.63;;
15216;SDS011;7711;46.634;14.318;2023-04-03T02:28:34;3.60;;;3.30;;
15216;SDS011;7711;46.634;14.318;2023-04-03T02:31:01;3.63;;;3.30;;
15216;SDS011;7711;46.634;14.318;2023-04-03T02:33:28;4.40;;;3.93;;
15216;SDS011;7711;46.634;14.318;2023-04-03T02:35:55;5.90;;;3.40;;
15216;SDS011;7711;46.634;14.318;2023-04-03T02:38:23;4.73;;;3.17;;
15216;SDS011;7711;46.634;14.318;2023-04-03T02:40:52;3.80;;;3.50;;
15216;SDS011;7711;46.634;14.318;2023-04-03T02:43:20;4.47;;;3.10;;
15216;SDS011;7711;46.634;14.318;2023-04-03T02:45:47;3.73;;;3.43;;
15216;SDS011;7711;46.634;14.318;2023-04-03T02:48:14;6.73;;;3.20;;
15216;SDS011;7711;46.634;14.318;2023-04-03T02:50:41;3.50;;;3.20;;
15216;SDS011;7711;46.634;14.318;2023-04-03T02:53:08;3.97;;;3.57;;
15216;SDS011;7711;46.634;14.318;2023-04-03T02:55:35;4.50;;;3.73;;
15216;SDS011;7711;46.634;14.318;2023-04-03T02:58:04;3.70;;;3.27;;
15216;SDS011;7711;46.634;14.318;2023-04-03T03:00:31;4.03;;;3.50;;
15216;SDS011;7711;46.634;14.318;2023-04-03T03:02:59;5.83;;;3.50;;
15216;SDS011;7711;46.634;14.318;2023-04-03T03:05:26;5.53;;;3.93;;
15216;SDS011;7711;46.634;14.318;2023-04-03T03:07:54;4.17;;;3.40;;
15216;SDS011;7711;46.634;14.318;2023-04-03T03:10:21;5.03;;;3.67;;
15216;SDS011;7711;46.634;14.318;2023-04-03T03:12:49;4.20;;;3.80;;
15216;SDS011;7711;46.634;14.318;2023-04-03T03:15:17;3.97;;;3.53;;
15216;SDS011;7711;46.634;14.318;2023-04-03T03:17:44;4.30;;;3.90;;
15216;SDS011;7711;46.634;14.318;2023-04-03T03:20:12;4.20;;;3.80;;
15216;SDS011;7711;46.634;14.318;2023-04-03T03:22:40;4.40;;;3.70;;
15216;SDS011;7711;46.634;14.318;2023-04-03T03:25:08;3.97;;;3.57;;
15216;SDS011;7711;46.634;14.318;2023-04-03T03:27:35;4.73;;;3.40;;
15216;SDS011;7711;46.634;14.318;2023-04-03T03:30:02;3.80;;;3.30;;
15216;SDS011;7711;46.634;14.318;2023-04-03T03:32:32;4.30;;;3.90;;
15216;SDS011;7711;46.634;14.318;2023-04-03T03:34:59;3.60;;;3.30;;
15216;SDS011;7711;46.634;14.318;2023-04-03T03:37:26;4.50;;;3.40;;
15216;SDS011;7711;46.634;14.318;2023-04-03T03:39:53;4.67;;;3.27;;
15216;SDS011;7711;46.634;14.318;2023-04-03T03:42:20;3.50;;;3.07;;
15216;SDS011;7711;46.634;14.318;2023-04-03T03:44:47;4.80;;;3.40;;
15216;SDS011;7711;46.634;14.318;2023-04-03T03:47:14;4.03;;;3.37;;
15216;SDS011;7711;46.634;14.318;2023-04-03T03:49:43;3.83;;;3.40;;
15216;SDS011;7711;46.634;14.318;2023-04-03T03:52:10;4.97;;;3.33;;
15216;SDS011;7711;46.634;14.318;2023-04-03T03:54:37;3.83;;;3.30;;
15216;SDS011;7711;46.634;14.318;2023-04-03T03:57:04;4.33;;;3.40;;
15216;SDS011;7711;46.634;14.318;2023-04-03T03:59:31;3.60;;;3.30;;
15216;SDS011;7711;46.634;14.318;2023-04-03T04:01:58;3.43;;;3.13;;
15216;SDS011;7711;46.634;14.318;2023-04-03T04:04:26;3.10;;;2.80;;
15216;SDS011;7711;46.634;14.318;2023-04-03T04:06:54;3.53;;;3.10;;
15216;SDS011;7711;46.634;14.318;2023-04-03T04:09:21;3.23;;;2.93;;
15216;SDS011;7711;46.634;14.318;2023-04-03T04:11:48;3.50;;;3.17;;
15216;SDS011;7711;46.634;14.318;2023-04-03T04:14:15;4.87;;;3.17;;
15216;SDS011;7711;46.634;14.318;2023-04-03T04:16:43;4.43;;;3.40;;
15216;SDS011;7711;46.634;14.318;2023-04-03T04:19:10;4.27;;;3.40;;
15216;SDS011;7711;46.634;14.318;2023-04-03T04:21:37;4.40;;;3.40;;
15216;SDS011;7711;46.634;14.318;2023-04-03T04:24:06;5.33;;;2.93;;
15216;SDS011;7711;46.634;14.318;2023-04-03T04:26:33;4.70;;;3.10;;
15216;SDS011;7711;46.634;14.318;2023-04-03T04:29:00;3.83;;;3.20;;
15216;SDS011;7711;46.634;14.318;2023-04-03T04:31:28;5.13;;;3.30;;
15216;SDS011;7711;46.634;14.318;2023-04-03T04:33:55;3.57;;;2.90;;
15216;SDS011;7711;46.634;14.318;2023-04-03T04:36:22;3.30;;;3.00;;
15216;SDS011;7711;46.634;14.318;2023-04-03T04:38:49;3.40;;;3.10;;
15216;SDS011;7711;46.634;14.318;2023-04-03T04:41:19;5.57;;;3.40;;
15216;SDS011;7711;46.634;14.318;2023-04-03T04:43:47;3.50;;;3.00;;
15216;SDS011;7711;46.634;14.318;2023-04-03T04:46:15;4.30;;;3.03;;
15216;SDS011;7711;46.634;14.318;2023-04-03T04:48:42;3.30;;;2.80;;
15216;SDS011;7711;46.634;14.318;2023-04-03T04:51:10;3.90;;;2.70;;
15216;SDS011;7711;46.634;14.318;2023-04-03T04:53:37;4.60;;;2.70;;
15216;SDS011;7711;46.634;14.318;2023-04-03T04:56:06;4.43;;;3.07;;
15216;SDS011;7711;46.634;14.318;2023-04-03T04:58:34;3.43;;;2.70;;
15216;SDS011;7711;46.634;14.318;2023-04-03T05:01:02;3.10;;;2.77;;
15216;SDS011;7711;46.634;14.318;2023-04-03T05:03:30;4.10;;;2.83;;
15216;SDS011;7711;46.634;14.318;2023-04-03T05:05:58;3.13;;;2.83;;
15216;SDS011;7711;46.634;14.318;2023-04-03T05:08:25;3.30;;;3.00;;
15216;SDS011;7711;46.634;14.318;2023-04-03T05:10:53;3.97;;;3.10;;
15216;SDS011;7711;46.634;14.318;2023-04-03T05:13:22;5.13;;;3.00;;
15216;SDS011;7711;46.634;14.318;2023-04-03T05:15:50;3.47;;;3.07;;
15216;SDS011;7711;46.634;14.318;2023-04-03T05:18:17;3.20;;;2.90;;
15216;SDS011;7711;46.634;14.318;2023-04-03T05:20:44;3.80;;;3.00;;
15216;SDS011;7711;46.634;14.318;2023-04-03T05:23:14;4.07;;;3.23;;
15216;SDS011;7711;46.634;14.318;2023-04-03T05:25:41;4.50;;;3.10;;
15216;SDS011;7711;46.634;14.318;2023-04-03T05:28:09;6.63;;;4.50;;
15216;SDS011;7711;46.634;14.318;2023-04-03T05:30:36;5.27;;;4.07;;
15216;SDS011;7711;46.634;14.318;2023-04-03T05:33:04;3.30;;;3.00;;
15216;SDS011;7711;46.634;14.318;2023-04-03T05:35:31;3.30;;;3.00;;
15216;SDS011;7711;46.634;14.318;2023-04-03T05:37:58;3.73;;;2.80;;
15216;SDS011;7711;46.634;14.318;2023-04-03T05:40:26;3.77;;;3.23;;
15216;SDS011;7711;46.634;14.318;2023-04-03T05:42:53;3.47;;;3.03;;
15216;SDS011;7711;46.634;14.318;2023-04-03T05:45:20;3.10;;;2.80;;
15216;SDS011;7711;46.634;14.318;2023-04-03T05:47:47;5.47;;;3.03;;
15216;SDS011;7711;46.634;14.318;2023-04-03T05:50:16;4.30;;;3.23;;
15216;SDS011;7711;46.634;14.318;2023-04-03T05:52:44;3.73;;;3.00;;
15216;SDS011;7711;46.634;14.318;2023-04-03T05:55:13;5.70;;;3.00;;
15216;SDS011;7711;46.634;14.318;2023-04-03T05:57:40;3.10;;;2.80;;
15216;SDS011;7711;46.634;14.318;2023-04-03T06:00:07;3.53;;;2.93;;
15216;SDS011;7711;46.634;14.318;2023-04-03T06:02:38;3.10;;;2.80;;
15216;SDS011;7711;46.634;14.318;2023-04-03T06:05:05;3.63;;;2.77;;
15216;SDS011;7711;46.634;14.318;2023-04-03T06:07:35;3.30;;;3.00;;
15216;SDS011;7711;46.634;14.318;2023-04-03T06:10:02;3.10;;;2.80;;
15216;SDS011;7711;46.634;14.318;2023-04-03T06:12:30;4.23;;;3.10;;
15216;SDS011;7711;46.634;14.318;2023-04-03T06:14:57;3.80;;;3.07;;
15216;SDS011;7711;46.634;14.318;2023-04-03T06:17:24;2.97;;;2.70;;
15216;SDS011;7711;46.634;14.318;2023-04-03T06:19:52;3.90;;;2.50;;
15216;SDS011;7711;46.634;14.318;2023-04-03T06:22:19;3.83;;;2.70;;
15216;SDS011;7711;46.634;14.318;2023-04-03T06:24:47;3.10;;;2.80;;
15216;SDS011;7711;46.634;14.318;2023-04-03T06:27:15;3.53;;;2.70;;
15216;SDS011;7711;46.634;14.318;2023-04-03T06:29:42;3.03;;;2.73;;
15216;SDS011;7711;46.634;14.318;2023-04-03T06:32:10;3.10;;;2.57;;
15216;SDS011;7711;46.634;14.318;2023-04-03T06:34:37;3.00;;;2.70;;
15216;SDS011;7711;46.634;14.318;2023-04-03T06:37:04;2.73;;;2.50;;
15216;SDS011;7711;46.634;14.318;2023-04-03T06:39:32;3.07;;;2.70;;
15216;SDS011;7711;46.634;14.318;2023-04-03T06:42:01;3.70;;;2.70;;
15216;SDS011;7711;46.634;14.318;2023-04-03T06:44:28;4.50;;;2.70;;
15216;SDS011;7711;46.634;14.318;2023-04-03T06:46:55;4.60;;;2.70;;
15216;SDS011;7711;46.634;14.318;2023-04-03T06:49:22;3.10;;;2.53;;
15216;SDS011;7711;46.634;14.318;2023-04-03T06:51:50;3.50;;;2.60;;
15216;SDS011;7711;46.634;14.318;2023-04-03T06:54:17;3.23;;;2.60;;
15216;SDS011;7711;46.634;14.318;2023-04-03T06:56:44;4.27;;;3.20;;
15216;SDS011;7711;46.634;14.318;2023-04-03T06:59:13;2.60;;;2.40;;
15216;SDS011;7711;46.634;14.318;2023-04-03T07:01:40;2.60;;;2.40;;
15216;SDS011;7711;46.634;14.318;2023-04-03T07:04:08;2.50;;;2.20;;
15216;SDS011;7711;46.634;14.318;2023-04-03T07:06:35;2.70;;;2.23;;
15216;SDS011;7711;46.634;14.318;2023-04-03T07:09:02;2.73;;;2.40;;
15216;SDS011;7711;46.634;14.318;2023-04-03T07:11:29;3.83;;;2.40;;
15216;SDS011;7711;46.634;14.318;2023-04-03T07:13:56;2.30;;;2.10;;
15216;SDS011;7711;46.634;14.318;2023-04-03T07:16:24;2.57;;;2.27;;
15216;SDS011;7711;46.634;14.318;2023-04-03T07:18:52;2.10;;;1.97;;
15216;SDS011;7711;46.634;14.318;2023-04-03T07:21:19;2.33;;;2.10;;
15216;SDS011;7711;46.634;14.318;2023-04-03T07:23:46;2.40;;;2.10;;
15216;SDS011;7711;46.634;14.318;2023-04-03T07:26:13;2.37;;;2.10;;
15216;SDS011;7711;46.634;14.318;2023-04-03T07:28:40;2.60;;;2.20;;
15216;SDS011;7711;46.634;14.318;2023-04-03T07:31:07;3.83;;;2.27;;
15216;SDS011;7711;46.634;14.318;2023-04-03T07:33:40;2.50;;;2.30;;
15216;SDS011;7711;46.634;14.318;2023-04-03T07:36:08;3.03;;;2.30;;
15216;SDS011;7711;46.634;14.318;2023-04-03T07:38:36;3.87;;;2.20;;
15216;SDS011;7711;46.634;14.318;2023-04-03T07:41:04;2.63;;;2.30;;
15216;SDS011;7711;46.634;14.318;2023-04-03T07:43:31;1.90;;;1.77;;
15216;SDS011;7711;46.634;14.318;2023-04-03T07:45:59;2.23;;;2.03;;
15216;SDS011;7711;46.634;14.318;2023-04-03T07:48:26;1.90;;;1.80;;
15216;SDS011;7711;46.634;14.318;2023-04-03T07:50:58;2.00;;;1.80;;
15216;SDS011;7711;46.634;14.318;2023-04-03T07:53:26;2.03;;;1.87;;
15216;SDS011;7711;46.634;14.318;2023-04-03T07:55:54;2.00;;;1.80;;
15216;SDS011;7711;46.634;14.318;2023-04-03T07:58:22;1.70;;;1.60;;
15216;SDS011;7711;46.634;14.318;2023-04-03T08:00:49;1.80;;;1.70;;
15216;SDS011;7711;46.634;14.318;2023-04-03T08:03:16;1.50;;;1.40;;
15216;SDS011;7711;46.634;14.318;2023-04-03T08:05:44;1.87;;;1.77;;
15216;SDS011;7711;46.634;14.318;2023-04-03T08:08:14;3.13;;;1.50;;
15216;SDS011;7711;46.634;14.318;2023-04-03T08:10:43;1.70;;;1.60;;
15216;SDS011;7711;46.634;14.318;2023-04-03T08:13:13;4.83;;;1.70;;
15216;SDS011;7711;46.634;14.318;2023-04-03T08:15:40;1.70;;;1.60;;
15216;SDS011;7711;46.634;14.318;2023-04-03T08:18:08;2.07;;;1.67;;
15216;SDS011;7711;46.634;14.318;2023-04-03T08:20:35;1.90;;;1.70;;
15216;SDS011;7711;46.634;14.318;2023-04-03T08:23:04;1.87;;;1.67;;
15216;SDS011;7711;46.634;14.318;2023-04-03T08:25:33;1.87;;;1.60;;
15216;SDS011;7711;46.634;14.318;2023-04-03T08:28:01;1.60;;;1.50;;
15216;SDS011;7711;46.634;14.318;2023-04-03T08:30:28;1.57;;;1.47;;
15216;SDS011;7711;46.634;14.318;2023-04-03T08:32:56;1.40;;;1.30;;
15216;SDS011;7711;46.634;14.318;2023-04-03T08:35:23;1.40;;;1.37;;
15216;SDS011;7711;46.634;14.318;2023-04-03T08:37:50;1.70;;;1.60;;
15216;SDS011;7711;46.634;14.318;2023-04-03T08:40:17;2.13;;;1.93;;
15216;SDS011;7711;46.634;14.318;2023-04-03T08:43:01;2.40;;;1.90;;
15216;SDS011;7711;46.634;14.318;2023-04-03T08:45:43;1.93;;;1.77;;
15216;SDS011;7711;46.634;14.318;2023-04-03T08:48:15;1.73;;;1.63;;
15216;SDS011;7711;46.634;14.318;2023-04-03T08:50:46;1.73;;;1.63;;
15216;SDS011;7711;46.634;14.318;2023-04-03T08:53:17;1.77;;;1.67;;
15216;SDS011;7711;46.634;14.318;2023-04-03T08:55:47;4.03;;;1.47;;
15216;SDS011;7711;46.634;14.318;2023-04-03T08:58:18;2.33;;;1.30;;
15216;SDS011;7711;46.634;14.318;2023-04-03T09:00:47;1.90;;;1.70;;
15216;SDS011;7711;46.634;14.318;2023-04-03T09:03:17;2.23;;;2.00;;
15216;SDS011;7711;46.634;14.318;2023-04-03T09:05:47;1.93;;;1.37;;
15216;SDS011;7711;46.634;14.318;2023-04-03T09:08:21;2.10;;;1.90;;
15216;SDS011;7711;46.634;14.318;2023-04-03T09:10:52;1.80;;;1.70;;
15216;SDS011;7711;46.634;14.318;2023-04-03T09:13:39;1.63;;;1.53;;
15216;SDS011;7711;46.634;14.318;2023-04-03T09:16:17;1.57;;;1.40;;
15216;SDS011;7711;46.634;14.318;2023-04-03T09:18:53;1.60;;;1.50;;
15216;SDS011;7711;46.634;14.318;2023-04-03T09:21:27;1.70;;;1.60;;
15216;SDS011;7711;46.634;14.318;2023-04-03T09:23:59;1.60;;;1.50;;
15216;SDS011;7711;46.634;14.318;2023-04-03T09:26:31;1.47;;;1.37;;
15216;SDS011;7711;46.634;14.318;2023-04-03T09:29:06;1.97;;;1.77;;
15216;SDS011;7711;46.634;14.318;2023-04-03T09:31:36;1.90;;;1.67;;
15216;SDS011;7711;46.634;14.318;2023-04-03T09:34:06;1.50;;;1.40;;
15216;SDS011;7711;46.634;14.318;2023-04-03T09:36:43;1.60;;;1.50;;
15216;SDS011;7711;46.634;14.318;2023-04-03T09:39:14;2.40;;;1.63;;
15216;SDS011;7711;46.634;14.318;2023-04-03T09:41:43;1.40;;;1.30;;
15216;SDS011;7711;46.634;14.318;2023-04-03T09:44:25;1.70;;;1.60;;
15216;SDS011;7711;46.634;14.318;2023-04-03T09:46:53;1.53;;;1.43;;
15216;SDS011;7711;46.634;14.318;2023-04-03T09:49:20;2.20;;;1.60;;
15216;SDS011;7711;46.634;14.318;2023-04-03T09:51:47;1.80;;;1.70;;
15216;SDS011;7711;46.634;14.318;2023-04-03T09:54:32;1.50;;;1.40;;
15216;SDS011;7711;46.634;14.318;2023-04-03T09:57:04;1.40;;;1.30;;
15216;SDS011;7711;46.634;14.318;2023-04-03T09:59:36;2.70;;;1.50;;
15216;SDS011;7711;46.634;14.318;2023-04-03T10:02:18;1.40;;;1.30;;
15216;SDS011;7711;46.634;14.318;2023-04-03T10:05:01;2.23;;;1.60;;
15216;SDS011;7711;46.634;14.318;2023-04-03T10:07:30;1.60;;;1.50;;
15216;SDS011;7711;46.634;14.318;2023-04-03T10:10:00;1.60;;;1.50;;
15216;SDS011;7711;46.634;14.318;2023-04-03T10:12:29;1.60;;;1.50;;
15216;SDS011;7711;46.634;14.318;2023-04-03T10:14:59;2.03;;;1.80;;
15216;SDS011;7711;46.634;14.318;2023-04-03T10:17:30;2.90;;;2.00;;
15216;SDS011;7711;46.634;14.318;2023-04-03T10:20:18;1.80;;;1.70;;
15216;SDS011;7711;46.634;14.318;2023-04-03T10:23:13;1.60;;;1.50;;
15216;SDS011;7711;46.634;14.318;2023-04-03T10:25:47;1.60;;;1.50;;
15216;SDS011;7711;46.634;14.318;2023-04-03T10:28:20;1.60;;;1.43;;
15216;SDS011;7711;46.634;14.318;2023-04-03T10:30:56;1.50;;;1.40;;
15216;SDS011;7711;46.634;14.318;2023-04-03T10:33:35;1.80;;;1.67;;
15216;SDS011;7711;46.634;14.318;2023-04-03T10:36:12;1.67;;;1.57;;
15216;SDS011;7711;46.634;14.318;2023-04-03T10:38:48;1.70;;;1.60;;
15216;SDS011;7711;46.634;14.318;2023-04-03T10:41:23;1.80;;;1.70;;
15216;SDS011;7711;46.634;14.318;2023-04-03T10:44:03;1.60;;;1.50;;
15216;SDS011;7711;46.634;14.318;2023-04-03T10:46:43;1.73;;;1.57;;
15216;SDS011;7711;46.634;14.318;2023-04-03T10:49:17;1.53;;;1.43;;
15216;SDS011;7711;46.634;14.318;2023-04-03T10:52:01;1.93;;;1.43;;
15216;SDS011;7711;46.634;14.318;2023-04-03T10:54:34;1.50;;;1.40;;
15216;SDS011;7711;46.634;14.318;2023-04-03T10:57:05;1.60;;;1.50;;
15216;SDS011;7711;46.634;14.318;2023-04-03T10:59:36;1.93;;;1.70;;
15216;SDS011;7711;46.634;14.318;2023-04-03T11:02:11;2.27;;;1.80;;
15216;SDS011;7711;46.634;14.318;2023-04-03T11:04:44;1.70;;;1.60;;
15216;SDS011;7711;46.634;14.318;2023-04-03T11:07:18;1.60;;;1.50;;
15216;SDS011;7711;46.634;14.318;2023-04-03T11:09:48;3.80;;;1.83;;
15216;SDS011;7711;46.634;14.318;2023-04-03T11:12:21;1.60;;;1.50;;
15216;SDS011;7711;46.634;14.318;2023-04-03T11:14:53;1.60;;;1.50;;
15216;SDS011;7711;46.634;14.318;2023-04-03T11:17:27;1.87;;;1.60;;
15216;SDS011;7711;46.634;14.318;2023-04-03T11:20:00;1.93;;;1.73;;
15216;SDS011;7711;46.634;14.318;2023-04-03T11:22:33;2.13;;;1.70;;
15216;SDS011;7711;46.634;14.318;2023-04-03T11:25:04;1.87;;;1.77;;
15216;SDS011;7711;46.634;14.318;2023-04-03T11:27:42;1.73;;;1.63;;
15216;SDS011;7711;46.634;14.318;2023-04-03T11:30:14;1.67;;;1.57;;
15216;SDS011;7711;46.634;14.318;2023-04-03T11:33:08;2.83;;;1.53;;
15216;SDS011;7711;46.634;14.318;2023-04-03T11:35:47;1.53;;;1.43;;
15216;SDS011;7711;46.634;14.318;2023-04-03T11:38:19;3.57;;;2.07;;
15216;SDS011;7711;46.634;14.318;2023-04-03T11:40:51;1.70;;;1.60;;
15216;SDS011;7711;46.634;14.318;2023-04-03T11:43:23;1.63;;;1.47;;
15216;SDS011;7711;46.634;14.318;2023-04-03T11:45:55;1.70;;;1.60;;
15216;SDS011;7711;46.634;14.318;2023-04-03T11:48:44;1.83;;;1.60;;
15216;SDS011;7711;46.634;14.318;2023-04-03T12:09:29;2.30;;;2.10;;
15216;SDS011;7711;46.634;14.318;2023-04-03T12:12:19;2.27;;;2.00;;
15216;SDS011;7711;46.634;14.318;2023-04-03T12:14:51;2.13;;;2.00;;
15216;SDS011;7711;46.634;14.318;2023-04-03T12:17:20;3.47;;;1.83;;
15216;SDS011;7711;46.634;14.318;2023-04-03T12:19:51;1.90;;;1.70;;
15216;SDS011;7711;46.634;14.318;2023-04-03T12:22:18;1.80;;;1.70;;
15216;SDS011;7711;46.634;14.318;2023-04-03T12:24:48;2.80;;;2.00;;
15216;SDS011;7711;46.634;14.318;2023-04-03T12:27:19;2.03;;;1.87;;
15216;SDS011;7711;46.634;14.318;2023-04-03T12:29:55;2.90;;;1.90;;
15216;SDS011;7711;46.634;14.318;2023-04-03T12:32:43;1.87;;;1.77;;
15216;SDS011;7711;46.634;14.318;2023-04-03T12:35:31;2.03;;;1.83;;
15216;SDS011;7711;46.634;14.318;2023-04-03T12:38:29;2.07;;;1.90;;
15216;SDS011;7711;46.634;14.318;2023-04-03T12:46:58;2.37;;;2.00;;
15216;SDS011;7711;46.634;14.318;2023-04-03T12:49:33;1.70;;;1.60;;
15216;SDS011;7711;46.634;14.318;2023-04-03T12:52:04;2.03;;;1.83;;
15216;SDS011;7711;46.634;14.318;2023-04-03T12:54:39;1.97;;;1.83;;
15216;SDS011;7711;46.634;14.318;2023-04-03T12:57:11;2.07;;;1.87;;
15216;SDS011;7711;46.634;14.318;2023-04-03T12:59:39;2.73;;;1.90;;
15216;SDS011;7711;46.634;14.318;2023-04-03T13:02:15;2.43;;;1.90;;
15216;SDS011;7711;46.634;14.318;2023-04-03T13:04:48;2.53;;;1.90;;
15216;SDS011;7711;46.634;14.318;2023-04-03T13:07:21;2.13;;;1.93;;
15216;SDS011;7711;46.634;14.318;2023-04-03T13:09:55;1.87;;;1.70;;
15216;SDS011;7711;46.634;14.318;2023-04-03T13:12:29;2.17;;;1.97;;
15216;SDS011;7711;46.634;14.318;2023-04-03T13:14:57;1.80;;;1.70;;
15216;SDS011;7711;46.634;14.318;2023-04-03T13:17:26;2.37;;;2.17;;
15216;SDS011;7711;46.634;14.318;2023-04-03T13:19:54;2.70;;;2.50;;
15216;SDS011;7711;46.634;14.318;2023-04-03T13:22:24;2.27;;;2.07;;
15216;SDS011;7711;46.634;14.318;2023-04-03T13:24:54;2.80;;;1.95;;
15216;SDS011;7711;46.634;14.318;2023-04-03T13:27:23;2.58;;;1.90;;
15216;SDS011;7711;46.634;14.318;2023-04-03T13:29:53;1.80;;;1.70;;
15216;SDS011;7711;46.634;14.318;2023-04-03T13:32:23;2.03;;;1.90;;
15216;SDS011;7711;46.634;14.318;2023-04-03T13:34:52;1.90;;;1.80;;
15216;SDS011;7711;46.634;14.318;2023-04-03T13:37:24;2.20;;;2.00;;
15216;SDS011;7711;46.634;14.318;2023-04-03T13:39:58;2.00;;;1.80;;
15216;SDS011;7711;46.634;14.318;2023-04-03T13:42:27;2.58;;;1.90;;
15216;SDS011;7711;46.634;14.318;2023-04-03T13:45:11;2.00;;;1.80;;
15216;SDS011;7711;46.634;14.318;2023-04-03T13:47:44;3.85;;;1.95;;
15216;SDS011;7711;46.634;14.318;2023-04-03T13:50:14;1.80;;;1.70;;
15216;SDS011;7711;46.634;14.318;2023-04-03T13:52:43;2.67;;;2.00;;
15216;SDS011;7711;46.634;14.318;2023-04-03T13:55:17;2.53;;;2.10;;
15216;SDS011;7711;46.634;14.318;2023-04-03T13:57:49;1.63;;;1.52;;
15216;SDS011;7711;46.634;14.318;2023-04-03T14:00:25;1.80;;;1.70;;
15216;SDS011;7711;46.634;14.318;2023-04-03T14:02:56;3.20;;;1.80;;
15216;SDS011;7711;46.634;14.318;2023-04-03T14:05:24;1.87;;;1.77;;
15216;SDS011;7711;46.634;14.318;2023-04-03T14:07:52;2.00;;;1.90;;
15216;SDS011;7711;46.634;14.318;2023-04-03T14:10:20;2.70;;;1.80;;
15216;SDS011;7711;46.634;14.318;2023-04-03T14:12:48;2.40;;;1.57;;
15216;SDS011;7711;46.634;14.318;2023-04-03T14:15:18;2.00;;;1.70;;
15216;SDS011;7711;46.634;14.318;2023-04-03T14:17:50;1.90;;;1.80;;
15216;SDS011;7711;46.634;14.318;2023-04-03T14:20:19;1.90;;;1.80;;
15216;SDS011;7711;46.634;14.318;2023-04-03T14:22:49;1.80;;;1.70;;
15216;SDS011;7711;46.634;14.318;2023-04-03T14:25:16;1.80;;;1.70;;
15216;SDS011;7711;46.634;14.318;2023-04-03T14:27:44;1.88;;;1.77;;
15216;SDS011;7711;46.634;14.318;2023-04-03T14:30:15;1.70;;;1.60;;
15216;SDS011;7711;46.634;14.318;2023-04-03T14:32:44;1.92;;;1.80;;
15216;SDS011;7711;46.634;14.318;2023-04-03T14:35:13;2.00;;;1.80;;
15216;SDS011;7711;46.634;14.318;2023-04-03T14:37:40;2.85;;;1.70;;
15216;SDS011;7711;46.634;14.318;2023-04-03T14:40:08;3.83;;;2.08;;
15216;SDS011;7711;46.634;14.318;2023-04-03T14:42:38;1.80;;;1.70;;
15216;SDS011;7711;46.634;14.318;2023-04-03T14:45:06;1.80;;;1.70;;
15216;SDS011;7711;46.634;14.318;2023-04-03T14:47:36;1.58;;;1.48;;
15216;SDS011;7711;46.634;14.318;2023-04-03T14:50:11;2.33;;;2.13;;
15216;SDS011;7711;46.634;14.318;2023-04-03T14:52:43;1.95;;;1.80;;
15216;SDS011;7711;46.634;14.318;2023-04-03T14:55:12;1.88;;;1.77;;
15216;SDS011;7711;46.634;14.318;2023-04-03T14:57:41;1.55;;;1.40;;
15216;SDS011;7711;46.634;14.318;2023-04-03T15:00:11;1.73;;;1.63;;
15216;SDS011;7711;46.634;14.318;2023-04-03T15:02:41;2.08;;;1.90;;
15216;SDS011;7711;46.634;14.318;2023-04-03T15:05:09;1.63;;;1.52;;
15216;SDS011;7711;46.634;14.318;2023-04-03T15:07:39;2.00;;;1.67;;
15216;SDS011;7711;46.634;14.318;2023-04-03T15:10:14;2.25;;;1.90;;
15216;SDS011;7711;46.634;14.318;2023-04-03T15:12:44;1.73;;;1.55;;
15216;SDS011;7711;46.634;14.318;2023-04-03T15:15:11;1.80;;;1.58;;
15216;SDS011;7711;46.634;14.318;2023-04-03T15:17:39;1.80;;;1.70;;
15216;SDS011;7711;46.634;14.318;2023-04-03T15:20:10;1.95;;;1.63;;
15216;SDS011;7711;46.634;14.318;2023-04-03T15:22:41;1.70;;;1.60;;
15216;SDS011;7711;46.634;14.318;2023-04-03T15:25:09;3.22;;;1.73;;
15216;SDS011;7711;46.634;14.318;2023-04-03T15:27:36;1.70;;;1.60;;
15216;SDS011;7711;46.634;14.318;2023-04-03T15:30:04;2.10;;;1.50;;